Time;durP1;ratioP1;P1;durP2;ratioP2;P2;SDS_P1;SDS_P2;PMS_P1;PMS_P2;Temp;Humidity;BMP_temperature;BMP_pressure;BME280_temperature;BME280_humidity;BME280_pressure;Samples;Min_cycle;Max_cycle;Signal;HPM_P1;HPM_P2
2020/12/11 00:00:03;;;;;;;4.85;3.45;;;3.20;90.50;;;;;;5079788;28;20482;-71
2020/12/11 00:02:33;;;;;;;3.67;3.10;;;3.20;90.90;;;;;;5079663;28;20103;-70
2020/12/11 00:05:02;;;;;;;5.00;3.13;;;3.10;91.40;;;;;;5062375;28;20024;-70
2020/12/11 00:07:28;;;;;;;4.57;3.15;;;3.00;91.50;;;;;;5079471;28;20031;-71
2020/12/11 00:09:54;;;;;;;4.80;3.40;;;3.00;91.50;;;;;;5061938;28;20056;-70
2020/12/11 00:12:19;;;;;;;4.07;3.38;;;3.00;91.80;;;;;;5079568;28;20020;-71
2020/12/11 00:14:45;;;;;;;4.28;3.60;;;3.00;91.90;;;;;;5079575;28;20122;-71
2020/12/11 00:17:10;;;;;;;3.35;3.03;;;3.00;92.00;;;;;;5079495;28;20033;-72
2020/12/11 00:19:36;;;;;;;4.07;2.60;;;3.00;91.70;;;;;;5079682;28;20028;-70
2020/12/11 00:22:02;;;;;;;4.65;3.10;;;3.00;91.70;;;;;;5061621;28;20028;-71
2020/12/11 00:24:27;;;;;;;3.80;2.85;;;3.20;90.70;;;;;;5079386;28;20037;-72
2020/12/11 00:26:53;;;;;;;3.80;2.95;;;3.20;90.40;;;;;;5079172;28;20036;-72
2020/12/11 00:29:19;;;;;;;3.45;2.78;;;3.10;90.50;;;;;;5079234;28;20408;-72
2020/12/11 00:31:44;;;;;;;3.22;2.63;;;3.10;90.70;;;;;;5061445;28;20027;-72
2020/12/11 00:34:10;;;;;;;3.28;2.40;;;3.10;90.40;;;;;;5079389;28;20082;-72
2020/12/11 00:36:36;;;;;;;2.53;1.85;;;3.10;90.60;;;;;;5061370;28;20029;-72
2020/12/11 00:39:04;;;;;;;3.22;2.30;;;3.00;90.10;;;;;;5079140;28;20029;-72
2020/12/11 00:41:30;;;;;;;2.83;2.17;;;3.10;90.20;;;;;;5079022;28;20477;-72
2020/12/11 00:43:55;;;;;;;4.10;2.00;;;3.00;90.50;;;;;;5078851;28;20116;-72
2020/12/11 00:46:25;;;;;;;2.13;1.45;;;3.00;90.60;;;;;;5079105;28;20029;-71
2020/12/11 00:48:52;;;;;;;3.17;1.77;;;3.00;90.60;;;;;;5078922;28;20424;-71
2020/12/11 00:51:21;;;;;;;1.80;1.60;;;3.00;90.20;;;;;;5078824;28;20016;-70
2020/12/11 00:53:47;;;;;;;2.42;1.67;;;2.90;90.60;;;;;;5078785;28;20024;-70
2020/12/11 00:56:13;;;;;;;4.18;2.00;;;2.90;90.70;;;;;;5060979;28;20078;-70
2020/12/11 00:58:39;;;;;;;1.95;1.67;;;2.90;90.90;;;;;;5078702;28;20029;-70
2020/12/11 01:01:05;;;;;;;1.90;1.50;;;2.90;91.00;;;;;;5078639;28;20025;-70
2020/12/11 01:03:30;;;;;;;3.13;2.10;;;2.90;90.60;;;;;;5078560;28;20028;-70
2020/12/11 01:05:56;;;;;;;3.22;2.53;;;3.00;90.20;;;;;;5078502;28;20071;-70
2020/12/11 01:08:22;;;;;;;3.42;2.72;;;3.00;90.00;;;;;;5060656;28;20070;-70
2020/12/11 01:10:47;;;;;;;3.25;2.67;;;3.00;90.10;;;;;;5078425;28;20028;-70
2020/12/11 01:13:13;;;;;;;3.97;3.00;;;3.00;90.50;;;;;;5078369;28;20055;-70
2020/12/11 01:15:42;;;;;;;4.53;3.40;;;3.00;90.40;;;;;;5078269;28;20108;-70
2020/12/11 01:18:07;;;;;;;4.82;3.40;;;3.10;90.40;;;;;;5078426;28;20032;-70
2020/12/11 01:20:33;;;;;;;3.80;3.10;;;3.10;90.40;;;;;;5078379;28;20025;-70
2020/12/11 01:22:58;;;;;;;3.70;3.08;;;3.00;90.10;;;;;;5078094;28;20031;-70
2020/12/11 01:25:24;;;;;;;3.72;2.70;;;2.90;90.20;;;;;;5077854;28;20048;-70
2020/12/11 01:27:52;;;;;;;3.95;3.45;;;2.90;90.40;;;;;;5077982;28;20029;-70
2020/12/11 01:30:18;;;;;;;3.88;2.97;;;2.90;91.00;;;;;;5077566;28;20359;-70
2020/12/11 01:32:43;;;;;;;3.65;3.30;;;3.00;91.00;;;;;;5077980;28;20021;-70
2020/12/11 01:35:09;;;;;;;4.75;3.47;;;3.00;90.70;;;;;;5077890;28;20035;-70
2020/12/11 01:37:35;;;;;;;4.05;3.38;;;3.00;90.10;;;;;;5077831;28;20377;-70
2020/12/11 01:40:00;;;;;;;3.38;2.65;;;2.90;90.20;;;;;;5077884;28;20035;-70
2020/12/11 01:42:26;;;;;;;4.03;3.17;;;2.90;90.60;;;;;;5077769;28;20050;-71
2020/12/11 01:44:53;;;;;;;3.60;3.28;;;3.10;90.00;;;;;;5077661;28;20306;-70
2020/12/11 01:47:20;;;;;;;3.92;2.83;;;3.20;89.40;;;;;;5077490;28;20028;-70
2020/12/11 01:49:46;;;;;;;5.30;3.03;;;3.30;88.90;;;;;;5059939;28;20366;-70
2020/12/11 01:52:14;;;;;;;4.43;2.97;;;3.40;88.10;;;;;;5077585;28;20020;-71
2020/12/11 01:54:40;;;;;;;3.95;2.90;;;3.50;87.90;;;;;;5077841;28;20037;-70
2020/12/11 01:57:15;;;;;;;3.42;2.88;;;3.50;87.90;;;;;;5077447;28;20308;-70
2020/12/11 01:59:45;;;;;;;4.00;2.78;;;3.50;87.70;;;;;;5077486;28;20032;-71
2020/12/11 02:02:13;;;;;;;3.28;2.72;;;3.50;87.80;;;;;;5077449;28;20024;-71
2020/12/11 02:04:38;;;;;;;4.25;3.13;;;3.40;87.60;;;;;;5077373;28;20025;-71
2020/12/11 02:07:05;;;;;;;3.55;3.03;;;3.30;87.90;;;;;;5077489;28;20078;-70
2020/12/11 02:09:35;;;;;;;5.68;3.05;;;3.20;88.80;;;;;;5077359;28;20320;-71
2020/12/11 02:12:04;;;;;;;4.10;3.00;;;3.10;88.90;;;;;;5077289;28;20112;-70
2020/12/11 02:14:34;;;;;;;3.83;2.88;;;3.00;89.00;;;;;;5077163;28;20021;-71
2020/12/11 02:17:04;;;;;;;3.47;2.80;;;3.00;88.90;;;;;;5077325;28;20050;-70
2020/12/11 02:19:33;;;;;;;5.65;3.55;;;2.90;89.40;;;;;;5077116;28;20028;-70
2020/12/11 02:22:07;;;;;;;3.42;2.42;;;2.80;90.10;;;;;;5077091;28;20442;-70
2020/12/11 02:24:33;;;;;;;3.65;3.10;;;2.80;90.10;;;;;;5059433;28;20297;-70
2020/12/11 02:27:00;;;;;;;4.20;2.92;;;2.80;89.90;;;;;;5076979;28;20047;-70
2020/12/11 02:29:27;;;;;;;3.58;3.15;;;2.80;90.00;;;;;;5077034;28;20028;-70
2020/12/11 02:31:58;;;;;;;6.00;4.13;;;2.80;90.10;;;;;;5076965;28;20020;-70
2020/12/11 02:34:24;;;;;;;4.35;3.30;;;2.80;89.70;;;;;;5076876;28;20108;-70
2020/12/11 02:36:50;;;;;;;6.80;4.47;;;2.80;90.10;;;;;;5076880;28;20048;-70
2020/12/11 02:39:15;;;;;;;3.70;3.10;;;2.80;89.70;;;;;;5077163;28;20033;-70
2020/12/11 02:41:41;;;;;;;4.10;2.90;;;2.80;89.80;;;;;;5058200;28;20028;-71
2020/12/11 02:44:07;;;;;;;3.53;3.08;;;2.90;89.70;;;;;;5059000;28;20109;-70
2020/12/11 02:46:32;;;;;;;4.43;3.25;;;3.00;89.40;;;;;;5058891;28;20417;-70
2020/12/11 02:49:00;;;;;;;4.03;3.13;;;3.20;88.70;;;;;;5076800;28;20428;-70
2020/12/11 02:51:26;;;;;;;4.68;3.45;;;3.30;88.20;;;;;;5076845;28;20420;-70
2020/12/11 02:53:54;;;;;;;3.92;3.40;;;3.40;87.70;;;;;;5076777;28;20048;-70
2020/12/11 02:56:23;;;;;;;6.60;3.90;;;3.40;87.10;;;;;;5076670;28;20416;-70
2020/12/11 02:58:49;;;;;;;3.97;3.47;;;3.50;87.10;;;;;;5076670;28;20351;-70
2020/12/11 03:01:15;;;;;;;4.07;3.33;;;3.60;86.80;;;;;;5076615;28;20031;-71
2020/12/11 03:03:42;;;;;;;5.40;3.45;;;3.60;86.30;;;;;;5076549;28;20020;-71
2020/12/11 03:06:08;;;;;;;3.67;2.90;;;3.60;86.20;;;;;;5076622;28;20025;-72
2020/12/11 03:08:34;;;;;;;3.85;3.00;;;3.60;86.00;;;;;;5076588;28;20335;-70
2020/12/11 03:11:00;;;;;;;4.28;3.30;;;3.60;86.20;;;;;;5058803;28;20019;-70
2020/12/11 03:13:26;;;;;;;5.60;4.03;;;3.70;85.90;;;;;;5076460;28;20056;-70
2020/12/11 03:15:53;;;;;;;4.07;3.20;;;3.70;85.90;;;;;;5077001;28;20057;-70
2020/12/11 03:18:18;;;;;;;4.90;3.88;;;3.70;86.20;;;;;;5076557;28;20028;-70
2020/12/11 03:20:44;;;;;;;4.28;2.92;;;3.70;86.30;;;;;;5076454;28;20340;-70
2020/12/11 03:23:10;;;;;;;4.07;3.30;;;3.70;86.20;;;;;;5076303;28;20104;-71
2020/12/11 03:25:38;;;;;;;3.30;3.00;;;3.60;85.90;;;;;;5076180;28;20048;-70
2020/12/11 03:28:03;;;;;;;4.22;3.08;;;3.50;87.10;;;;;;5076557;28;20209;-70
2020/12/11 03:30:29;;;;;;;3.60;3.20;;;3.30;86.60;;;;;;5076401;28;20049;-70
2020/12/11 03:32:56;;;;;;;3.60;3.20;;;3.20;87.50;;;;;;5076435;28;20048;-70
2020/12/11 03:35:21;;;;;;;4.85;3.53;;;3.20;87.90;;;;;;5058443;28;20070;-70
2020/12/11 03:37:47;;;;;;;4.22;3.42;;;3.10;87.80;;;;;;5076283;28;20033;-71
2020/12/11 03:40:15;;;;;;;4.57;3.50;;;3.10;88.70;;;;;;5076288;28;20048;-70
2020/12/11 03:42:41;;;;;;;4.65;3.90;;;3.10;88.50;;;;;;5076215;28;20111;-70
2020/12/11 03:45:06;;;;;;;4.10;3.55;;;3.20;88.20;;;;;;5076142;28;20048;-70
2020/12/11 03:47:32;;;;;;;4.97;3.83;;;3.20;87.90;;;;;;5076087;28;20103;-70
2020/12/11 03:49:59;;;;;;;5.13;4.03;;;3.20;87.90;;;;;;5076651;28;20364;-70
2020/12/11 03:52:29;;;;;;;3.90;2.83;;;3.20;87.50;;;;;;5077758;28;20319;-70
2020/12/11 03:54:55;;;;;;;3.80;3.33;;;3.30;87.50;;;;;;5080277;28;20032;-70
2020/12/11 03:57:21;;;;;;;6.07;3.20;;;3.20;87.20;;;;;;5079844;28;20035;-70
2020/12/11 03:59:46;;;;;;;4.38;3.63;;;3.20;87.00;;;;;;5079826;28;20320;-70
2020/12/11 04:02:13;;;;;;;4.03;2.92;;;3.30;87.30;;;;;;5079731;28;20402;-70
2020/12/11 04:04:39;;;;;;;3.33;3.03;;;3.30;87.10;;;;;;5079643;28;20024;-70
2020/12/11 04:07:05;;;;;;;3.80;2.88;;;3.30;87.00;;;;;;5079598;28;20112;-70
2020/12/11 04:09:31;;;;;;;4.40;3.30;;;3.40;86.40;;;;;;5079682;28;20371;-70
2020/12/11 04:11:59;;;;;;;4.43;3.03;;;3.40;86.00;;;;;;5079521;28;20059;-70
2020/12/11 04:14:25;;;;;;;3.22;2.80;;;3.50;85.90;;;;;;5061665;28;20029;-70
2020/12/11 04:16:51;;;;;;;3.80;3.10;;;3.50;85.70;;;;;;5079484;28;20021;-70
2020/12/11 04:19:16;;;;;;;4.38;3.35;;;3.50;85.20;;;;;;5079488;28;20024;-70
2020/12/11 04:21:52;;;;;;;4.30;3.47;;;3.50;84.70;;;;;;5079390;28;20297;-70
2020/12/11 04:24:19;;;;;;;4.40;3.58;;;3.60;84.80;;;;;;5079632;28;20043;-71
2020/12/11 04:26:44;;;;;;;4.28;3.28;;;3.60;84.60;;;;;;5079040;28;20048;-70
2020/12/11 04:29:10;;;;;;;4.28;3.50;;;3.60;84.90;;;;;;5079371;28;20028;-70
2020/12/11 04:31:36;;;;;;;5.15;3.88;;;3.60;84.60;;;;;;5079204;28;20024;-70
2020/12/11 04:34:02;;;;;;;4.25;3.55;;;3.50;84.70;;;;;;5079130;28;20020;-70
2020/12/11 04:36:28;;;;;;;4.30;3.30;;;3.50;84.60;;;;;;5079123;28;20024;-70
2020/12/11 04:38:53;;;;;;;4.32;3.17;;;3.50;84.60;;;;;;5079090;28;20036;-70
2020/12/11 04:41:20;;;;;;;3.72;3.10;;;3.50;85.20;;;;;;5079235;28;20428;-70
2020/12/11 04:43:50;;;;;;;4.40;3.40;;;3.40;85.50;;;;;;5078916;28;20017;-70
2020/12/11 04:46:17;;;;;;;4.35;3.25;;;3.30;85.30;;;;;;5079252;28;20028;-70
2020/12/11 04:48:42;;;;;;;3.70;2.95;;;3.20;85.50;;;;;;5061116;28;20074;-70
2020/12/11 04:51:09;;;;;;;4.55;2.42;;;3.10;86.40;;;;;;5078849;28;20024;-70
2020/12/11 04:53:39;;;;;;;4.25;3.03;;;3.00;87.30;;;;;;5078764;28;20036;-70
2020/12/11 04:56:06;;;;;;;4.47;3.45;;;2.90;87.40;;;;;;5079115;28;20031;-70
2020/12/11 04:58:33;;;;;;;4.63;3.83;;;2.90;87.10;;;;;;5078736;28;20116;-70
2020/12/11 05:01:03;;;;;;;5.18;4.10;;;2.90;87.40;;;;;;5078946;28;20033;-70
2020/12/11 05:03:33;;;;;;;5.47;4.07;;;3.10;87.20;;;;;;5078326;28;20420;-70
2020/12/11 05:05:58;;;;;;;4.75;3.50;;;3.20;86.80;;;;;;5078075;28;20073;-69
2020/12/11 05:08:27;;;;;;;6.07;4.28;;;3.20;86.30;;;;;;5078575;28;20037;-70
2020/12/11 05:10:53;;;;;;;4.85;3.83;;;3.30;86.20;;;;;;5078488;28;20320;-69
2020/12/11 05:13:23;;;;;;;4.13;3.63;;;3.40;85.60;;;;;;5078393;28;20021;-70
2020/12/11 05:16:11;;;;;;;4.55;3.53;;;3.50;85.40;;;;;;5078328;28;20397;-70
2020/12/11 05:18:41;;;;;;;4.60;4.10;;;3.50;84.90;;;;;;5078387;28;20103;-69
2020/12/11 05:21:19;;;;;;;4.95;3.83;;;3.50;84.60;;;;;;5078361;28;20327;-70
2020/12/11 05:24:04;;;;;;;5.28;4.22;;;3.60;84.40;;;;;;5078264;28;20340;-70
2020/12/11 05:26:31;;;;;;;5.13;3.85;;;3.60;84.50;;;;;;5078002;28;20127;-70
2020/12/11 05:28:58;;;;;;;4.18;3.58;;;3.50;84.30;;;;;;5078131;28;20044;-69
2020/12/11 05:31:24;;;;;;;5.63;3.25;;;3.50;84.50;;;;;;5078319;28;20078;-69
2020/12/11 05:34:06;;;;;;;5.00;3.80;;;3.60;84.00;;;;;;5077882;28;20016;-69
2020/12/11 05:36:43;;;;;;;4.95;3.47;;;3.60;83.70;;;;;;5077944;28;20320;-69
2020/12/11 05:39:09;;;;;;;3.47;3.08;;;3.60;83.50;;;;;;5077916;28;20020;-69
2020/12/11 05:41:36;;;;;;;4.93;3.95;;;3.60;83.00;;;;;;5077782;28;20059;-69
2020/12/11 05:44:02;;;;;;;4.32;3.22;;;3.60;82.80;;;;;;5060041;28;20371;-69
2020/12/11 05:46:33;;;;;;;3.58;3.03;;;3.70;82.80;;;;;;5077770;28;20103;-69
2020/12/11 05:49:01;;;;;;;5.28;3.35;;;3.70;82.80;;;;;;5077785;28;20028;-70
2020/12/11 05:51:40;;;;;;;3.63;3.10;;;3.70;83.10;;;;;;5060000;28;20035;-69
2020/12/11 05:54:06;;;;;;;4.18;3.08;;;3.70;82.70;;;;;;5078013;28;20099;-69
2020/12/11 05:56:35;;;;;;;4.32;2.90;;;3.70;82.70;;;;;;5077565;28;20012;-69
2020/12/11 05:59:03;;;;;;;3.50;3.03;;;3.70;82.50;;;;;;5059813;28;20028;-69
2020/12/11 06:01:32;;;;;;;3.08;2.70;;;3.70;82.10;;;;;;5078055;28;20020;-69
2020/12/11 06:03:59;;;;;;;4.05;3.03;;;3.70;82.20;;;;;;5059621;28;20320;-69
2020/12/11 06:06:28;;;;;;;3.72;3.03;;;3.70;81.60;;;;;;5077419;28;20028;-70
2020/12/11 06:09:01;;;;;;;3.25;2.95;;;3.70;81.80;;;;;;5077351;28;20060;-70
2020/12/11 06:11:35;;;;;;;3.42;2.90;;;3.60;81.60;;;;;;5077518;28;20029;-70
2020/12/11 06:14:06;;;;;;;3.10;2.45;;;3.50;82.00;;;;;;5077694;28;20297;-69
2020/12/11 06:16:36;;;;;;;3.70;2.58;;;3.50;82.20;;;;;;5059413;28;20036;-69
2020/12/11 06:19:04;;;;;;;3.78;3.17;;;3.50;82.30;;;;;;5077495;28;20028;-69
2020/12/11 06:21:35;;;;;;;4.38;2.90;;;3.40;82.20;;;;;;5077083;28;20024;-70
2020/12/11 06:24:01;;;;;;;4.20;3.38;;;3.40;82.50;;;;;;5077228;28;20032;-70
2020/12/11 06:26:27;;;;;;;3.22;2.30;;;3.40;82.70;;;;;;5076923;28;20040;-70
2020/12/11 06:28:53;;;;;;;3.33;2.85;;;3.40;82.40;;;;;;5076972;28;20034;-69
2020/12/11 06:31:24;;;;;;;3.10;2.47;;;3.40;82.40;;;;;;5076988;28;20079;-69
2020/12/11 06:33:55;;;;;;;4.85;2.28;;;3.40;82.70;;;;;;5076905;28;20074;-70
2020/12/11 06:36:21;;;;;;;3.72;2.55;;;3.30;82.70;;;;;;5076984;28;20035;-70
2020/12/11 06:38:54;;;;;;;4.97;3.22;;;3.30;82.80;;;;;;5076905;28;20461;-70
2020/12/11 06:41:28;;;;;;;2.83;2.53;;;3.40;82.90;;;;;;5076879;28;20032;-70
2020/12/11 06:43:55;;;;;;;3.70;2.97;;;3.40;83.20;;;;;;5077012;28;20029;-70
2020/12/11 06:46:24;;;;;;;3.35;2.75;;;3.40;83.40;;;;;;5076854;28;20416;-70
2020/12/11 06:49:13;;;;;;;3.13;2.28;;;3.30;83.50;;;;;;5076731;28;20052;-70
2020/12/11 06:51:45;;;;;;;5.25;3.35;;;3.30;83.50;;;;;;5076854;28;20025;-70
2020/12/11 06:54:11;;;;;;;3.17;2.45;;;3.40;83.50;;;;;;5076873;28;20029;-69
2020/12/11 06:56:45;;;;;;;3.30;2.70;;;3.50;83.00;;;;;;5076696;28;20048;-69
2020/12/11 06:59:29;;;;;;;3.97;2.90;;;3.60;82.50;;;;;;5058940;28;20023;-69
2020/12/11 07:01:56;;;;;;;3.13;2.35;;;3.60;82.50;;;;;;5076618;28;20074;-70
2020/12/11 07:04:23;;;;;;;3.33;2.97;;;3.60;82.20;;;;;;5076577;28;20024;-70
2020/12/11 07:06:53;;;;;;;3.40;2.35;;;3.60;82.30;;;;;;5076503;28;20013;-70
2020/12/11 07:09:20;;;;;;;2.90;2.40;;;3.60;81.80;;;;;;5076677;28;20416;-69
2020/12/11 07:11:47;;;;;;;4.03;2.85;;;3.70;81.50;;;;;;5076504;28;20021;-69
2020/12/11 07:14:13;;;;;;;3.90;2.63;;;3.80;81.80;;;;;;5076452;28;20027;-70
2020/12/11 07:16:43;;;;;;;3.85;3.03;;;3.80;81.30;;;;;;5076526;28;20364;-70
2020/12/11 07:19:10;;;;;;;3.97;2.80;;;3.90;81.20;;;;;;5076531;28;20048;-69
2020/12/11 07:21:39;;;;;;;4.85;2.83;;;3.90;80.70;;;;;;5076432;28;20032;-71
2020/12/11 07:24:06;;;;;;;2.88;2.40;;;3.90;81.00;;;;;;5076589;28;20346;-69
2020/12/11 07:26:32;;;;;;;2.65;2.05;;;3.90;80.90;;;;;;5076171;28;20068;-70
2020/12/11 07:29:09;;;;;;;4.78;2.10;;;4.00;80.80;;;;;;5062314;28;20052;-70
2020/12/11 07:31:42;;;;;;;3.88;1.90;;;4.00;81.50;;;;;;5080668;28;20404;-70
2020/12/11 07:34:19;;;;;;;3.00;1.90;;;4.10;80.10;;;;;;5080575;28;20024;-70
2020/12/11 07:36:55;;;;;;;3.20;2.47;;;4.20;79.50;;;;;;5080342;28;20032;-70
2020/12/11 07:39:24;;;;;;;3.05;2.28;;;4.30;80.60;;;;;;5080369;28;20312;-70
2020/12/11 07:41:51;;;;;;;3.45;2.47;;;4.30;79.90;;;;;;5062425;28;20297;-69
2020/12/11 07:44:43;;;;;;;2.92;2.15;;;4.40;79.90;;;;;;5080052;28;20043;-70
2020/12/11 07:47:11;;;;;;;2.10;1.70;;;4.40;79.60;;;;;;5077021;28;20041;-70
2020/12/11 07:49:44;;;;;;;2.58;2.05;;;4.40;79.20;;;;;;5079990;28;20017;-70
2020/12/11 07:52:11;;;;;;;3.55;1.98;;;4.50;79.50;;;;;;5080172;28;20047;-70
2020/12/11 07:54:39;;;;;;;2.67;1.95;;;4.50;78.90;;;;;;5062216;28;20028;-70
2020/12/11 07:57:15;;;;;;;1.98;1.70;;;4.60;79.90;;;;;;5079839;28;20032;-70
2020/12/11 07:59:42;;;;;;;2.13;1.67;;;4.70;78.40;;;;;;5080193;28;20096;-70
2020/12/11 08:02:08;;;;;;;2.42;1.90;;;4.70;78.20;;;;;;5079751;28;20320;-70
2020/12/11 08:04:37;;;;;;;2.40;1.90;;;4.80;77.60;;;;;;5079684;28;20048;-70
2020/12/11 08:07:03;;;;;;;2.65;2.03;;;4.90;78.90;;;;;;5079794;28;20025;-70
2020/12/11 08:09:30;;;;;;;2.13;1.48;;;4.90;78.00;;;;;;5079800;28;20048;-70
2020/12/11 08:11:55;;;;;;;2.63;1.95;;;5.00;77.60;;;;;;5079588;28;20028;-70
2020/12/11 08:14:21;;;;;;;3.33;1.70;;;5.10;78.00;;;;;;5079789;28;20078;-70
2020/12/11 08:16:52;;;;;;;2.83;1.80;;;5.20;76.30;;;;;;5079704;28;20039;-70
2020/12/11 08:19:18;;;;;;;1.52;1.35;;;5.30;77.50;;;;;;5079786;28;20025;-70
2020/12/11 08:21:43;;;;;;;2.40;1.75;;;5.40;77.10;;;;;;5079392;28;20070;-70
2020/12/11 08:24:09;;;;;;;1.92;1.67;;;5.50;78.40;;;;;;5079525;28;20048;-70
2020/12/11 08:26:38;;;;;;;2.50;1.48;;;5.50;76.40;;;;;;5079092;28;20075;-70
2020/12/11 08:29:08;;;;;;;2.70;1.52;;;5.50;77.50;;;;;;5079588;28;20024;-70
2020/12/11 08:31:42;;;;;;;1.75;1.50;;;5.60;77.90;;;;;;5079498;28;20477;-70
2020/12/11 08:34:15;;;;;;;4.50;1.45;;;5.70;75.90;;;;;;5079147;28;20025;-70
2020/12/11 08:36:47;;;;;;;4.13;2.10;;;5.70;74.00;;;;;;5079266;28;20027;-70
2020/12/11 08:39:25;;;;;;;2.10;1.20;;;5.80;74.40;;;;;;5077866;28;20020;-70
2020/12/11 08:45:21;;;;;;;;;;;6.00;73.40;;;;;;5079403;28;20032;-70
2020/12/11 08:50:39;;;;;;;1.77;1.60;;;6.20;77.30;;;;;;5078933;28;20031;-70
2020/12/11 08:53:07;;;;;;;3.65;1.77;;;6.40;79.70;;;;;;5078956;28;20013;-70
2020/12/11 08:55:34;;;;;;;2.33;1.90;;;6.60;79.00;;;;;;5078746;28;20025;-70
2020/12/11 08:58:00;;;;;;;2.58;1.90;;;6.80;77.80;;;;;;5078827;28;20055;-70
2020/12/11 09:00:25;;;;;;;2.88;1.80;;;6.90;76.90;;;;;;5078800;28;20056;-70
2020/12/11 09:02:51;;;;;;;1.83;1.50;;;6.90;76.60;;;;;;5078646;28;20371;-70
2020/12/11 09:05:17;;;;;;;2.90;1.83;;;6.90;76.70;;;;;;5060791;28;20052;-70
2020/12/11 09:07:43;;;;;;;2.40;1.90;;;6.90;75.70;;;;;;5078647;28;20056;-70
2020/12/11 09:10:09;;;;;;;2.17;1.60;;;6.90;76.30;;;;;;5078583;28;20371;-70
2020/12/11 09:12:36;;;;;;;2.60;1.95;;;6.90;77.10;;;;;;5060997;28;20099;-70
2020/12/11 09:15:05;;;;;;;3.08;2.10;;;7.00;77.30;;;;;;5078389;28;20024;-70
2020/12/11 09:17:31;;;;;;;3.40;2.15;;;6.90;76.50;;;;;;5078374;28;20424;-70
2020/12/11 09:19:56;;;;;;;3.05;2.13;;;6.90;76.10;;;;;;5078607;28;20032;-70
2020/12/11 09:22:22;;;;;;;2.45;1.88;;;7.00;75.50;;;;;;5078440;28;20020;-70
2020/12/11 09:24:48;;;;;;;2.67;2.20;;;7.00;75.30;;;;;;5078263;28;20048;-70
2020/12/11 09:27:14;;;;;;;3.55;2.35;;;7.00;75.40;;;;;;5060379;28;20349;-70
2020/12/11 09:29:44;;;;;;;4.35;2.30;;;7.10;76.40;;;;;;5078378;28;20028;-70
2020/12/11 09:32:16;;;;;;;2.90;2.10;;;7.50;75.40;;;;;;5078091;28;20013;-70
2020/12/11 09:34:41;;;;;;;2.78;2.47;;;8.30;73.80;;;;;;5078589;28;20024;-70
2020/12/11 09:37:07;;;;;;;3.38;3.05;;;9.10;70.20;;;;;;5077962;28;20028;-70
2020/12/11 09:39:33;;;;;;;4.18;3.67;;;9.60;68.50;;;;;;5077947;28;20378;-70
2020/12/11 09:42:15;;;;;;;5.82;4.00;;;10.20;67.60;;;;;;5078017;28;20033;-71
2020/12/11 09:45:01;;;;;;;4.00;3.58;;;10.60;65.30;;;;;;5077800;28;20024;-71
2020/12/11 09:50:42;;;;;;;5.38;3.88;;;11.00;64.60;;;;;;5015968;28;20030;-71
2020/12/11 09:55:46;;;;;;;4.95;4.05;;;11.00;64.50;;;;;;5077580;28;20309;-71
2020/12/11 09:58:11;;;;;;;4.22;3.35;;;11.00;64.50;;;;;;5077589;28;20021;-71
2020/12/11 10:00:41;;;;;;;4.25;3.63;;;10.90;66.20;;;;;;5077515;28;20020;-71
2020/12/11 10:03:09;;;;;;;4.53;3.70;;;11.00;65.10;;;;;;5077468;28;20021;-71
2020/12/11 10:05:35;;;;;;;5.78;4.30;;;11.10;64.90;;;;;;5059401;28;20033;-71
2020/12/11 10:08:01;;;;;;;5.30;4.00;;;11.00;63.90;;;;;;5081675;28;20110;-71
2020/12/11 10:10:29;;;;;;;6.18;3.83;;;10.80;64.50;;;;;;5082784;28;20031;-71
2020/12/11 10:12:55;;;;;;;4.97;3.70;;;10.50;64.80;;;;;;5059517;28;20297;-71
2020/12/11 10:15:22;;;;;;;4.53;4.03;;;10.40;64.50;;;;;;5077169;28;20031;-71
2020/12/11 10:17:49;;;;;;;3.85;3.47;;;10.30;65.80;;;;;;5077218;28;20040;-71
2020/12/11 10:20:18;;;;;;;5.18;3.72;;;10.40;66.30;;;;;;5077409;28;20032;-71
2020/12/11 10:22:57;;;;;;;4.38;3.47;;;10.30;68.10;;;;;;5077224;28;20024;-71
2020/12/11 10:25:22;;;;;;;4.40;3.42;;;10.50;65.00;;;;;;5059063;28;20497;-71
2020/12/11 10:27:48;;;;;;;6.65;3.55;;;10.60;66.00;;;;;;5076946;28;20137;-71
2020/12/11 10:30:15;;;;;;;3.38;3.08;;;10.90;63.70;;;;;;5076912;28;20424;-71
2020/12/11 10:32:40;;;;;;;3.60;3.17;;;10.90;65.60;;;;;;5076986;28;20021;-71
2020/12/11 10:35:07;;;;;;;3.50;3.20;;;10.70;65.20;;;;;;5076927;28;20375;-71
2020/12/11 10:37:34;;;;;;;5.15;2.80;;;10.40;63.60;;;;;;5076959;28;20025;-71
2020/12/11 10:40:02;;;;;;;3.63;3.20;;;10.40;63.90;;;;;;5076934;28;20031;-71
2020/12/11 10:42:31;;;;;;;3.88;3.00;;;10.20;65.30;;;;;;5076845;28;20466;-71
2020/12/11 10:44:57;;;;;;;4.15;3.30;;;9.70;66.30;;;;;;5076888;28;20021;-70
2020/12/11 10:47:22;;;;;;;3.97;3.28;;;9.10;69.10;;;;;;5076730;28;20028;-71
2020/12/11 10:49:48;;;;;;;4.07;3.45;;;8.80;70.90;;;;;;5077100;28;20020;-70
2020/12/11 10:52:16;;;;;;;4.68;3.65;;;8.80;72.00;;;;;;5076747;28;20431;-71
2020/12/11 10:54:42;;;;;;;3.88;2.97;;;8.90;70.80;;;;;;5077033;28;20060;-71
2020/12/11 10:57:07;;;;;;;6.05;3.53;;;9.00;70.90;;;;;;5076661;28;20079;-70
2020/12/11 10:59:33;;;;;;;3.85;3.28;;;9.00;70.50;;;;;;5076908;28;20029;-70
2020/12/11 11:01:59;;;;;;;3.30;3.00;;;9.10;70.20;;;;;;5075874;28;20025;-71
2020/12/11 11:04:27;;;;;;;6.40;3.35;;;9.10;69.60;;;;;;5058825;28;20029;-71
2020/12/11 11:07:10;;;;;;;3.22;2.92;;;9.10;70.20;;;;;;5076596;28;20056;-71
2020/12/11 11:17:19;;;;;;;3.28;2.63;;;8.70;70.80;;;;;;5076798;28;20110;-70
2020/12/11 11:20:45;;;;;;;3.60;2.50;;;8.60;70.70;;;;;;5076404;28;20379;-71
2020/12/11 11:30:05;;;;;;;2.65;2.10;;;8.10;68.10;;;;;;5077043;28;20035;-70
2020/12/11 11:32:31;;;;;;;2.60;1.92;;;8.00;68.20;;;;;;5076367;28;20021;-70
2020/12/11 11:34:57;;;;;;;2.70;2.17;;;8.00;67.40;;;;;;5076868;28;20100;-70
2020/12/11 11:37:26;;;;;;;4.40;2.17;;;8.00;70.00;;;;;;5076332;28;20447;-70
2020/12/11 11:39:52;;;;;;;3.60;2.42;;;8.00;68.20;;;;;;5076410;28;20416;-70
2020/12/11 11:42:21;;;;;;;3.63;2.90;;;8.00;69.00;;;;;;5076267;28;20103;-70
2020/12/11 11:47:18;;;;;;;3.08;2.30;;;7.70;69.10;;;;;;5076456;28;20044;-70
2020/12/11 11:52:31;;;;;;;3.78;2.45;;;7.70;69.60;;;;;;5076210;28;20098;-70
2020/12/11 11:54:57;;;;;;;3.05;2.38;;;7.90;70.30;;;;;;5058313;28;20029;-70
2020/12/11 11:57:23;;;;;;;2.67;2.17;;;8.00;69.60;;;;;;5058381;28;20416;-70
2020/12/11 11:59:48;;;;;;;3.55;2.75;;;8.00;69.60;;;;;;5076327;28;20025;-70
2020/12/11 12:02:14;;;;;;;3.60;2.70;;;8.20;68.70;;;;;;5076057;28;20047;-70
2020/12/11 12:04:41;;;;;;;3.20;2.60;;;8.40;68.30;;;;;;5076015;28;20485;-70
2020/12/11 12:07:07;;;;;;;3.35;2.60;;;8.60;68.20;;;;;;5075929;28;20024;-70
2020/12/11 12:09:33;;;;;;;4.97;3.78;;;8.50;67.10;;;;;;5076123;28;20025;-70
2020/12/11 12:11:59;;;;;;;4.38;3.33;;;8.60;72.50;;;;;;5076111;28;20021;-70
2020/12/11 12:14:25;;;;;;;4.78;3.92;;;8.60;72.10;;;;;;5078282;28;20050;-70
2020/12/11 12:16:53;;;;;;;5.15;4.25;;;8.60;70.30;;;;;;5079535;28;20069;-70
2020/12/11 12:19:27;;;;;;;5.88;4.65;;;8.40;71.80;;;;;;5079504;28;20064;-70
2020/12/11 12:29:36;;;;;;;5.43;4.60;;;8.20;73.50;;;;;;5080047;28;20116;-70
2020/12/11 12:32:09;;;;;;;4.55;4.13;;;8.20;73.50;;;;;;5079692;28;20050;-70
2020/12/11 12:34:44;;;;;;;5.85;4.32;;;8.30;73.50;;;;;;5061380;28;20485;-70
2020/12/11 12:42:34;;;;;;;5.55;4.30;;;8.60;72.70;;;;;;5079380;28;20032;-70
2020/12/11 12:45:00;;;;;;;6.47;4.70;;;8.60;72.00;;;;;;5079024;28;20020;-70
2020/12/11 12:47:26;;;;;;;6.07;4.40;;;8.50;71.90;;;;;;5061128;28;20051;-70
2020/12/11 12:49:52;;;;;;;5.57;4.22;;;8.40;71.30;;;;;;5079311;28;20020;-70
2020/12/11 12:52:17;;;;;;;5.28;3.97;;;8.20;74.70;;;;;;5061131;28;20025;-70
2020/12/11 12:54:43;;;;;;;5.72;4.65;;;8.10;73.10;;;;;;5079148;28;20034;-70
2020/12/11 12:57:18;;;;;;;5.22;4.35;;;8.10;74.70;;;;;;5078743;28;20404;-70
2020/12/11 12:59:51;;;;;;;5.25;4.60;;;8.10;74.50;;;;;;5078795;28;20047;-70
2020/12/11 13:04:53;;;;;;;6.65;5.05;;;7.90;73.60;;;;;;5078941;28;20070;-71
2020/12/11 13:07:19;;;;;;;4.88;4.30;;;7.90;74.00;;;;;;5078577;28;20409;-70
2020/12/11 13:09:47;;;;;;;6.32;4.45;;;7.90;73.90;;;;;;5078654;28;20031;-70
2020/12/11 13:12:13;;;;;;;6.32;5.47;;;7.90;73.80;;;;;;5078682;28;20029;-70
2020/12/11 13:14:38;;;;;;;7.22;5.13;;;7.80;75.80;;;;;;5078414;28;20115;-70
2020/12/11 13:17:05;;;;;;;6.13;5.43;;;7.80;74.70;;;;;;5060662;28;20447;-71
2020/12/11 13:19:32;;;;;;;5.32;4.50;;;7.90;74.70;;;;;;5078434;28;20100;-72
2020/12/11 13:22:17;;;;;;;9.63;5.07;;;7.90;74.40;;;;;;5078344;28;20017;-72
2020/12/11 13:27:29;;;;;;;6.47;5.45;;;7.80;74.60;;;;;;5078165;28;20044;-70
2020/12/11 13:29:55;;;;;;;8.43;5.35;;;7.70;76.00;;;;;;5078174;28;20084;-72
2020/12/11 13:32:21;;;;;;;6.70;5.13;;;7.70;77.10;;;;;;5078119;28;20021;-72
2020/12/11 13:34:47;;;;;;;5.80;5.20;;;7.60;75.40;;;;;;5078322;28;20129;-71
2020/12/11 13:37:13;;;;;;;6.90;6.07;;;7.60;75.30;;;;;;5077996;28;20029;-72
2020/12/11 13:39:39;;;;;;;8.00;5.13;;;7.40;76.10;;;;;;5078108;28;20031;-72
2020/12/11 13:42:05;;;;;;;7.47;5.55;;;7.30;76.30;;;;;;5078015;28;20081;-72
2020/12/11 13:44:31;;;;;;;8.98;6.00;;;7.20;76.40;;;;;;5077825;28;20099;-72
2020/12/11 13:46:57;;;;;;;6.05;5.43;;;7.20;76.20;;;;;;5077706;28;20028;-72
2020/12/11 13:49:23;;;;;;;5.18;4.18;;;7.10;76.20;;;;;;5060041;28;20027;-71
2020/12/11 13:51:50;;;;;;;5.00;4.40;;;7.10;75.50;;;;;;5077691;28;20059;-72